sensor_id;sensor_type;location;lat;lon;timestamp;pressure;altitude;pressure_sealevel;temperature;humidity
66689;BME280;53587;59.318;18.084;2023-08-24T00:01:14;101248.66;;;21.75;86.83
66689;BME280;53587;59.318;18.084;2023-08-24T00:03:41;101244.78;;;21.90;85.15
66689;BME280;53587;59.318;18.084;2023-08-24T00:06:06;101241.28;;;21.84;82.04
66689;BME280;53587;59.318;18.084;2023-08-24T00:08:32;101245.56;;;21.62;80.15
66689;BME280;53587;59.318;18.084;2023-08-24T00:10:57;101246.47;;;21.38;79.18
66689;BME280;53587;59.318;18.084;2023-08-24T00:13:23;101248.25;;;21.29;79.33
66689;BME280;53587;59.318;18.084;2023-08-24T00:15:48;101243.59;;;21.44;84.10
66689;BME280;53587;59.318;18.084;2023-08-24T00:18:13;101251.00;;;21.67;86.57
66689;BME280;53587;59.318;18.084;2023-08-24T00:20:38;101245.59;;;21.90;84.98
66689;BME280;53587;59.318;18.084;2023-08-24T00:23:04;101256.31;;;21.83;80.67
66689;BME280;53587;59.318;18.084;2023-08-24T00:25:29;101252.00;;;21.58;79.37
66689;BME280;53587;59.318;18.084;2023-08-24T00:27:55;101257.56;;;21.38;78.82
66689;BME280;53587;59.318;18.084;2023-08-24T00:30:20;101255.63;;;21.20;79.44
66689;BME280;53587;59.318;18.084;2023-08-24T00:32:45;101257.69;;;21.28;83.44
66689;BME280;53587;59.318;18.084;2023-08-24T00:35:11;101254.59;;;21.49;86.65
66689;BME280;53587;59.318;18.084;2023-08-24T00:37:40;101258.41;;;21.72;85.90
66689;BME280;53587;59.318;18.084;2023-08-24T00:40:06;101264.53;;;21.88;84.58
66689;BME280;53587;59.318;18.084;2023-08-24T00:42:41;101256.25;;;21.69;79.89
66689;BME280;53587;59.318;18.084;2023-08-24T00:45:07;101253.63;;;21.39;79.00
66689;BME280;53587;59.318;18.084;2023-08-24T00:47:34;101255.91;;;21.18;79.15
66689;BME280;53587;59.318;18.084;2023-08-24T00:50:00;101255.59;;;21.01;79.52
66689;BME280;53587;59.318;18.084;2023-08-24T00:52:25;101256.13;;;21.22;84.19
66689;BME280;53587;59.318;18.084;2023-08-24T00:54:52;101253.56;;;21.45;86.16
66689;BME280;53587;59.318;18.084;2023-08-24T00:57:17;101259.41;;;21.62;85.28
66689;BME280;53587;59.318;18.084;2023-08-24T00:59:43;101255.25;;;21.79;86.55
66689;BME280;53587;59.318;18.084;2023-08-24T01:02:08;101258.97;;;21.88;83.98
66689;BME280;53587;59.318;18.084;2023-08-24T01:04:33;101249.81;;;21.54;80.08
66689;BME280;53587;59.318;18.084;2023-08-24T01:06:58;101254.03;;;21.33;80.00
66689;BME280;53587;59.318;18.084;2023-08-24T01:09:24;101252.31;;;21.18;79.04
66689;BME280;53587;59.318;18.084;2023-08-24T01:11:53;101257.63;;;21.14;81.66
66689;BME280;53587;59.318;18.084;2023-08-24T01:14:30;101259.19;;;21.39;85.84
66689;BME280;53587;59.318;18.084;2023-08-24T01:17:01;101250.78;;;21.64;88.45
66689;BME280;53587;59.318;18.084;2023-08-24T01:21:56;101258.69;;;21.70;80.19
66689;BME280;53587;59.318;18.084;2023-08-24T01:25:00;101252.97;;;21.48;79.47
66689;BME280;53587;59.318;18.084;2023-08-24T01:27:17;101255.63;;;21.20;79.19
66689;BME280;53587;59.318;18.084;2023-08-24T01:29:44;101254.19;;;21.03;79.84
66689;BME280;53587;59.318;18.084;2023-08-24T01:32:10;101260.84;;;21.21;85.48
66689;BME280;53587;59.318;18.084;2023-08-24T01:34:37;101257.25;;;21.40;88.09
66689;BME280;53587;59.318;18.084;2023-08-24T01:37:03;101256.66;;;21.62;86.81
66689;BME280;53587;59.318;18.084;2023-08-24T01:39:29;101263.03;;;21.77;85.51
66689;BME280;53587;59.318;18.084;2023-08-24T01:42:00;101260.56;;;21.75;81.52
66689;BME280;53587;59.318;18.084;2023-08-24T01:44:27;101257.56;;;21.38;79.88
66689;BME280;53587;59.318;18.084;2023-08-24T01:46:53;101254.06;;;21.14;79.25
66689;BME280;53587;59.318;18.084;2023-08-24T01:49:19;101258.16;;;20.97;79.16
66689;BME280;53587;59.318;18.084;2023-08-24T01:51:45;101260.91;;;20.97;83.22
66689;BME280;53587;59.318;18.084;2023-08-24T01:54:11;101250.09;;;21.20;86.88
66689;BME280;53587;59.318;18.084;2023-08-24T01:56:36;101243.38;;;21.40;85.57
66689;BME280;53587;59.318;18.084;2023-08-24T01:59:02;101250.03;;;21.58;85.82
66689;BME280;53587;59.318;18.084;2023-08-24T02:01:28;101255.03;;;21.75;85.75
66689;BME280;53587;59.318;18.084;2023-08-24T02:03:53;101242.91;;;21.71;83.13
66689;BME280;53587;59.318;18.084;2023-08-24T02:06:18;101234.97;;;21.45;80.47
66689;BME280;53587;59.318;18.084;2023-08-24T02:08:44;101238.38;;;21.23;79.56
66689;BME280;53587;59.318;18.084;2023-08-24T02:11:10;101240.56;;;21.07;79.33
66689;BME280;53587;59.318;18.084;2023-08-24T02:13:35;101239.34;;;21.13;82.93
66689;BME280;53587;59.318;18.084;2023-08-24T02:16:07;101248.19;;;21.34;86.43
66689;BME280;53587;59.318;18.084;2023-08-24T02:18:33;101241.72;;;21.58;87.02
66689;BME280;53587;59.318;18.084;2023-08-24T02:20:59;101243.34;;;21.78;85.03
66689;BME280;53587;59.318;18.084;2023-08-24T02:23:24;101248.91;;;21.92;86.28
66689;BME280;53587;59.318;18.084;2023-08-24T02:25:49;101240.91;;;22.04;85.34
66689;BME280;53587;59.318;18.084;2023-08-24T02:28:15;101243.47;;;22.15;86.47
66689;BME280;53587;59.318;18.084;2023-08-24T02:30:40;101238.25;;;22.27;86.42
66689;BME280;53587;59.318;18.084;2023-08-24T02:33:05;101238.09;;;22.38;84.80
66689;BME280;53587;59.318;18.084;2023-08-24T02:35:31;101240.16;;;22.46;86.40
66689;BME280;53587;59.318;18.084;2023-08-24T02:37:56;101244.00;;;22.31;81.12
66689;BME280;53587;59.318;18.084;2023-08-24T02:40:22;101245.47;;;21.81;79.66
66689;BME280;53587;59.318;18.084;2023-08-24T02:42:47;101241.34;;;21.46;79.61
66689;BME280;53587;59.318;18.084;2023-08-24T02:45:12;101243.34;;;21.26;79.15
66689;BME280;53587;59.318;18.084;2023-08-24T02:47:38;101247.69;;;21.32;84.63
66689;BME280;53587;59.318;18.084;2023-08-24T02:50:04;101247.31;;;21.53;87.47
66689;BME280;53587;59.318;18.084;2023-08-24T02:52:31;101244.34;;;21.68;89.13
66689;BME280;53587;59.318;18.084;2023-08-24T02:54:56;101247.66;;;21.84;88.07
66689;BME280;53587;59.318;18.084;2023-08-24T02:57:21;101243.03;;;21.80;82.25
66689;BME280;53587;59.318;18.084;2023-08-24T02:59:46;101244.84;;;21.51;80.27
66689;BME280;53587;59.318;18.084;2023-08-24T03:02:12;101236.38;;;21.29;79.35
66689;BME280;53587;59.318;18.084;2023-08-24T03:04:37;101237.78;;;21.07;79.21
66689;BME280;53587;59.318;18.084;2023-08-24T03:07:02;101241.91;;;21.10;83.36
66689;BME280;53587;59.318;18.084;2023-08-24T03:09:28;101240.47;;;21.31;86.52
66689;BME280;53587;59.318;18.084;2023-08-24T03:11:53;101236.22;;;21.53;87.33
66689;BME280;53587;59.318;18.084;2023-08-24T03:14:19;101228.13;;;21.76;85.67
66689;BME280;53587;59.318;18.084;2023-08-24T03:16:44;101235.50;;;21.66;80.89
66689;BME280;53587;59.318;18.084;2023-08-24T03:19:09;101244.72;;;21.43;79.94
66689;BME280;53587;59.318;18.084;2023-08-24T03:21:36;101237.94;;;21.16;79.25
66689;BME280;53587;59.318;18.084;2023-08-24T03:24:01;101233.53;;;20.96;79.64
66689;BME280;53587;59.318;18.084;2023-08-24T03:26:29;101237.03;;;21.01;84.22
66689;BME280;53587;59.318;18.084;2023-08-24T03:28:54;101235.28;;;21.24;87.60
66689;BME280;53587;59.318;18.084;2023-08-24T03:31:19;101231.91;;;21.47;86.25
66689;BME280;53587;59.318;18.084;2023-08-24T03:33:45;101234.94;;;21.64;84.86
66689;BME280;53587;59.318;18.084;2023-08-24T03:36:10;101229.97;;;21.80;86.83
66689;BME280;53587;59.318;18.084;2023-08-24T03:38:36;101229.78;;;21.91;88.51
66689;BME280;53587;59.318;18.084;2023-08-24T03:41:04;101232.88;;;21.89;86.67
66689;BME280;53587;59.318;18.084;2023-08-24T03:43:31;101234.78;;;21.55;80.27
66689;BME280;53587;59.318;18.084;2023-08-24T03:45:57;101228.94;;;21.24;79.69
66689;BME280;53587;59.318;18.084;2023-08-24T03:48:22;101228.94;;;21.05;79.92
66689;BME280;53587;59.318;18.084;2023-08-24T03:50:47;101235.41;;;21.00;82.82
66689;BME280;53587;59.318;18.084;2023-08-24T03:53:13;101230.16;;;21.18;87.44
66689;BME280;53587;59.318;18.084;2023-08-24T03:55:38;101225.31;;;21.43;86.33
66689;BME280;53587;59.318;18.084;2023-08-24T03:58:03;101211.28;;;21.53;85.74
66689;BME280;53587;59.318;18.084;2023-08-24T04:00:28;101217.03;;;21.76;85.80
66689;BME280;53587;59.318;18.084;2023-08-24T04:02:54;101212.50;;;21.66;81.55
66689;BME280;53587;59.318;18.084;2023-08-24T04:05:19;101222.31;;;21.58;80.91
66689;BME280;53587;59.318;18.084;2023-08-24T04:07:44;101220.69;;;21.57;80.41
66689;BME280;53587;59.318;18.084;2023-08-24T04:10:10;101221.09;;;21.64;80.23
66689;BME280;53587;59.318;18.084;2023-08-24T04:12:36;101219.72;;;21.95;84.73
66689;BME280;53587;59.318;18.084;2023-08-24T04:15:01;101213.69;;;22.20;84.93
66689;BME280;53587;59.318;18.084;2023-08-24T04:17:27;101208.97;;;22.35;79.91
66689;BME280;53587;59.318;18.084;2023-08-24T04:19:52;101208.03;;;22.40;79.26
66689;BME280;53587;59.318;18.084;2023-08-24T04:22:17;101215.25;;;22.41;79.25
66689;BME280;53587;59.318;18.084;2023-08-24T04:24:45;101219.06;;;22.45;79.91
66689;BME280;53587;59.318;18.084;2023-08-24T04:27:10;101219.34;;;22.57;80.87
66689;BME280;53587;59.318;18.084;2023-08-24T04:29:36;101212.84;;;22.76;80.46
66689;BME280;53587;59.318;18.084;2023-08-24T04:32:02;101217.69;;;22.70;77.86
66689;BME280;53587;59.318;18.084;2023-08-24T04:34:27;101214.22;;;22.64;78.26
66689;BME280;53587;59.318;18.084;2023-08-24T04:36:53;101217.28;;;22.77;80.78
66689;BME280;53587;59.318;18.084;2023-08-24T04:39:19;101216.84;;;22.83;81.19
66689;BME280;53587;59.318;18.084;2023-08-24T04:41:45;101214.13;;;22.92;80.36
66689;BME280;53587;59.318;18.084;2023-08-24T04:44:10;101207.75;;;22.92;79.16
66689;BME280;53587;59.318;18.084;2023-08-24T04:46:35;101207.97;;;22.95;79.74
66689;BME280;53587;59.318;18.084;2023-08-24T04:49:00;101212.88;;;22.98;79.51
66689;BME280;53587;59.318;18.084;2023-08-24T04:51:26;101213.53;;;22.95;79.90
66689;BME280;53587;59.318;18.084;2023-08-24T04:53:53;101223.38;;;23.02;79.60
66689;BME280;53587;59.318;18.084;2023-08-24T04:56:18;101216.78;;;22.97;79.31
66689;BME280;53587;59.318;18.084;2023-08-24T04:58:54;101213.19;;;22.97;79.68
66689;BME280;53587;59.318;18.084;2023-08-24T05:01:20;101224.06;;;23.07;79.29
66689;BME280;53587;59.318;18.084;2023-08-24T05:03:45;101214.47;;;23.13;79.84
66689;BME280;53587;59.318;18.084;2023-08-24T05:06:10;101212.44;;;23.19;79.38
66689;BME280;53587;59.318;18.084;2023-08-24T05:08:36;101208.63;;;23.15;79.66
66689;BME280;53587;59.318;18.084;2023-08-24T05:11:01;101217.34;;;23.22;80.16
66689;BME280;53587;59.318;18.084;2023-08-24T05:13:26;101205.63;;;23.25;79.95
66689;BME280;53587;59.318;18.084;2023-08-24T05:15:51;101211.97;;;23.26;80.30
66689;BME280;53587;59.318;18.084;2023-08-24T05:18:17;101211.69;;;23.27;79.79
66689;BME280;53587;59.318;18.084;2023-08-24T05:20:42;101219.00;;;23.23;79.31
66689;BME280;53587;59.318;18.084;2023-08-24T05:23:07;101215.09;;;23.24;79.62
66689;BME280;53587;59.318;18.084;2023-08-24T05:25:32;101217.34;;;23.22;78.47
66689;BME280;53587;59.318;18.084;2023-08-24T05:27:59;101214.28;;;23.24;79.84
66689;BME280;53587;59.318;18.084;2023-08-24T05:30:24;101220.66;;;23.24;79.51
66689;BME280;53587;59.318;18.084;2023-08-24T05:32:50;101221.16;;;23.26;79.81
66689;BME280;53587;59.318;18.084;2023-08-24T05:35:22;101215.16;;;23.33;79.42
66689;BME280;53587;59.318;18.084;2023-08-24T05:37:51;101220.03;;;23.27;78.68
66689;BME280;53587;59.318;18.084;2023-08-24T05:40:23;101218.50;;;23.21;79.66
66689;BME280;53587;59.318;18.084;2023-08-24T05:42:51;101219.38;;;23.30;78.86
66689;BME280;53587;59.318;18.084;2023-08-24T05:45:16;101223.28;;;23.29;79.71
66689;BME280;53587;59.318;18.084;2023-08-24T05:47:44;101224.31;;;23.34;78.98
66689;BME280;53587;59.318;18.084;2023-08-24T05:50:09;101219.56;;;23.34;79.33
66689;BME280;53587;59.318;18.084;2023-08-24T05:52:36;101216.00;;;23.34;79.91
66689;BME280;53587;59.318;18.084;2023-08-24T05:55:05;101218.44;;;23.35;78.14
66689;BME280;53587;59.318;18.084;2023-08-24T05:57:30;101221.03;;;23.31;78.58
66689;BME280;53587;59.318;18.084;2023-08-24T05:59:56;101221.22;;;23.35;78.44
66689;BME280;53587;59.318;18.084;2023-08-24T06:02:21;101224.56;;;23.23;78.72
66689;BME280;53587;59.318;18.084;2023-08-24T06:04:46;101222.28;;;23.25;79.25
66689;BME280;53587;59.318;18.084;2023-08-24T06:07:11;101218.38;;;23.26;78.56
66689;BME280;53587;59.318;18.084;2023-08-24T06:09:40;101215.72;;;23.21;78.67
66689;BME280;53587;59.318;18.084;2023-08-24T06:12:09;101223.75;;;23.23;78.64
66689;BME280;53587;59.318;18.084;2023-08-24T06:14:34;101218.00;;;23.19;78.89
66689;BME280;53587;59.318;18.084;2023-08-24T06:16:59;101223.03;;;23.17;79.04
66689;BME280;53587;59.318;18.084;2023-08-24T06:19:28;101212.44;;;23.19;78.92
66689;BME280;53587;59.318;18.084;2023-08-24T06:21:53;101212.44;;;23.19;79.74
66689;BME280;53587;59.318;18.084;2023-08-24T06:24:25;101214.47;;;23.27;78.23
66689;BME280;53587;59.318;18.084;2023-08-24T06:26:50;101213.25;;;23.20;78.33
66689;BME280;53587;59.318;18.084;2023-08-24T06:29:15;101209.66;;;23.19;78.06
66689;BME280;53587;59.318;18.084;2023-08-24T06:31:41;101226.66;;;23.18;78.87
66689;BME280;53587;59.318;18.084;2023-08-24T06:34:06;101232.91;;;23.23;79.99
66689;BME280;53587;59.318;18.084;2023-08-24T06:36:31;101228.47;;;23.22;78.96
66689;BME280;53587;59.318;18.084;2023-08-24T06:38:59;101228.47;;;23.22;79.04
66689;BME280;53587;59.318;18.084;2023-08-24T06:41:25;101234.66;;;23.19;79.05
66689;BME280;53587;59.318;18.084;2023-08-24T06:43:50;101224.88;;;23.22;78.83
66689;BME280;53587;59.318;18.084;2023-08-24T06:46:15;101230.75;;;23.20;79.21
66689;BME280;53587;59.318;18.084;2023-08-24T06:48:41;101236.63;;;23.19;78.74
66689;BME280;53587;59.318;18.084;2023-08-24T06:51:11;101235.81;;;23.18;78.88
66689;BME280;53587;59.318;18.084;2023-08-24T06:53:37;101234.88;;;23.23;78.85
66689;BME280;53587;59.318;18.084;2023-08-24T06:56:02;101235.00;;;23.18;78.85
66689;BME280;53587;59.318;18.084;2023-08-24T06:58:28;101239.41;;;23.19;78.88
66689;BME280;53587;59.318;18.084;2023-08-24T07:00:54;101236.94;;;23.17;79.14
66689;BME280;53587;59.318;18.084;2023-08-24T07:03:20;101235.28;;;23.16;79.40
66689;BME280;53587;59.318;18.084;2023-08-24T07:05:49;101241.25;;;23.23;78.55
66689;BME280;53587;59.318;18.084;2023-08-24T07:08:14;101237.97;;;23.21;78.76
66689;BME280;53587;59.318;18.084;2023-08-24T07:10:39;101238.31;;;23.28;79.78
66689;BME280;53587;59.318;18.084;2023-08-24T07:13:06;101235.19;;;23.21;78.66
66689;BME280;53587;59.318;18.084;2023-08-24T07:15:32;101248.25;;;23.21;78.82
66689;BME280;53587;59.318;18.084;2023-08-24T07:17:59;101241.75;;;23.25;79.95
66689;BME280;53587;59.318;18.084;2023-08-24T07:20:25;101251.34;;;23.19;80.66
66689;BME280;53587;59.318;18.084;2023-08-24T07:22:56;101244.03;;;23.23;80.30
66689;BME280;53587;59.318;18.084;2023-08-24T07:25:22;101241.38;;;23.18;79.61
66689;BME280;53587;59.318;18.084;2023-08-24T07:27:52;101249.19;;;23.16;80.79
66689;BME280;53587;59.318;18.084;2023-08-24T07:30:44;101236.94;;;23.17;80.72
66689;BME280;53587;59.318;18.084;2023-08-24T07:33:21;101242.50;;;23.17;81.34
66689;BME280;53587;59.318;18.084;2023-08-24T07:35:50;101242.88;;;23.24;80.89
66689;BME280;53587;59.318;18.084;2023-08-24T07:38:16;101244.53;;;23.25;81.40
66689;BME280;53587;59.318;18.084;2023-08-24T07:44:19;101248.47;;;23.10;80.58
66689;BME280;53587;59.318;18.084;2023-08-24T07:50:12;101243.78;;;22.97;80.33
66689;BME280;53587;59.318;18.084;2023-08-24T07:52:38;101259.81;;;23.00;80.89
66689;BME280;53587;59.318;18.084;2023-08-24T07:55:04;101248.88;;;23.04;80.13
66689;BME280;53587;59.318;18.084;2023-08-24T07:57:29;101252.31;;;23.00;79.89
66689;BME280;53587;59.318;18.084;2023-08-24T07:59:55;101252.31;;;23.00;79.93
66689;BME280;53587;59.318;18.084;2023-08-24T08:02:20;101263.34;;;22.92;78.75
66689;BME280;53587;59.318;18.084;2023-08-24T08:04:45;101261.25;;;22.97;80.26
66689;BME280;53587;59.318;18.084;2023-08-24T08:07:11;101252.91;;;22.97;79.46
66689;BME280;53587;59.318;18.084;2023-08-24T08:09:39;101250.97;;;22.98;81.02
66689;BME280;53587;59.318;18.084;2023-08-24T08:12:05;101260.25;;;22.93;79.92
66689;BME280;53587;59.318;18.084;2023-08-24T08:14:30;101258.59;;;22.92;79.55
66689;BME280;53587;59.318;18.084;2023-08-24T08:16:56;101268.06;;;22.91;79.36
66689;BME280;53587;59.318;18.084;2023-08-24T08:19:21;101264.16;;;22.92;80.53
66689;BME280;53587;59.318;18.084;2023-08-24T08:21:46;101256.22;;;22.99;81.10
66689;BME280;53587;59.318;18.084;2023-08-24T08:24:12;101262.38;;;22.96;79.66
66689;BME280;53587;59.318;18.084;2023-08-24T08:26:37;101265.16;;;22.96;79.64
66689;BME280;53587;59.318;18.084;2023-08-24T08:29:03;101263.31;;;23.06;81.24
66689;BME280;53587;59.318;18.084;2023-08-24T08:31:28;101263.75;;;22.99;80.13
66689;BME280;53587;59.318;18.084;2023-08-24T08:33:53;101266.94;;;22.92;80.31
66689;BME280;53587;59.318;18.084;2023-08-24T08:36:19;101257.94;;;23.09;81.94
66689;BME280;53587;59.318;18.084;2023-08-24T08:38:44;101271.00;;;23.23;82.65
66689;BME280;53587;59.318;18.084;2023-08-24T08:41:09;101272.94;;;23.22;80.84
66689;BME280;53587;59.318;18.084;2023-08-24T08:43:35;101266.72;;;23.17;80.67
66689;BME280;53587;59.318;18.084;2023-08-24T08:46:03;101273.59;;;23.19;81.71
66689;BME280;53587;59.318;18.084;2023-08-24T08:48:30;101270.28;;;23.17;80.14
66689;BME280;53587;59.318;18.084;2023-08-24T08:50:57;101267.28;;;23.13;80.71
66689;BME280;53587;59.318;18.084;2023-08-24T08:53:22;101267.50;;;23.17;80.28
66689;BME280;53587;59.318;18.084;2023-08-24T08:55:51;101280.19;;;23.09;80.70
66689;BME280;53587;59.318;18.084;2023-08-24T08:58:18;101270.06;;;23.13;81.24
66689;BME280;53587;59.318;18.084;2023-08-24T09:00:44;101270.91;;;23.14;80.36
66689;BME280;53587;59.318;18.084;2023-08-24T09:03:10;101261.03;;;23.08;80.54
66689;BME280;53587;59.318;18.084;2023-08-24T09:05:37;101280.38;;;23.13;79.93
66689;BME280;53587;59.318;18.084;2023-08-24T09:08:02;101278.13;;;23.15;80.67
66689;BME280;53587;59.318;18.084;2023-08-24T09:10:44;101274.22;;;23.16;80.00
66689;BME280;53587;59.318;18.084;2023-08-24T09:13:09;101276.47;;;23.14;80.33
66689;BME280;53587;59.318;18.084;2023-08-24T09:15:42;101274.72;;;23.18;81.18
66689;BME280;53587;59.318;18.084;2023-08-24T09:18:07;101270.28;;;23.17;79.67
66689;BME280;53587;59.318;18.084;2023-08-24T09:20:33;101263.31;;;23.06;79.47
66689;BME280;53587;59.318;18.084;2023-08-24T09:23:00;101265.44;;;23.09;79.91
66689;BME280;53587;59.318;18.084;2023-08-24T09:28:22;101251.34;;;23.19;80.58
66689;BME280;53587;59.318;18.084;2023-08-24T09:30:53;101251.34;;;23.19;80.06
66689;BME280;53587;59.318;18.084;2023-08-24T09:33:24;101248.06;;;23.17;80.62
66689;BME280;53587;59.318;18.084;2023-08-24T09:35:54;101248.91;;;23.18;79.99
66689;BME280;53587;59.318;18.084;2023-08-24T09:38:22;101253.19;;;23.10;79.98
66689;BME280;53587;59.318;18.084;2023-08-24T09:43:33;101250.94;;;23.12;79.66
66689;BME280;53587;59.318;18.084;2023-08-24T09:46:02;101254.22;;;23.14;80.89
66689;BME280;53587;59.318;18.084;2023-08-24T09:48:29;101259.78;;;23.14;79.85
66689;BME280;53587;59.318;18.084;2023-08-24T09:51:00;101249.81;;;23.13;80.51
66689;BME280;53587;59.318;18.084;2023-08-24T09:53:28;101255.88;;;23.15;80.17
66689;BME280;53587;59.318;18.084;2023-08-24T09:56:12;101257.00;;;23.14;80.48
66689;BME280;53587;59.318;18.084;2023-08-24T09:58:43;101265.88;;;23.16;79.64
66689;BME280;53587;59.318;18.084;2023-08-24T10:01:10;101252.81;;;23.17;78.85
66689;BME280;53587;59.318;18.084;2023-08-24T10:03:39;101255.88;;;23.15;80.03
66689;BME280;53587;59.318;18.084;2023-08-24T10:06:05;101258.75;;;23.10;79.14
66689;BME280;53587;59.318;18.084;2023-08-24T10:08:43;101253.19;;;23.10;79.32
66689;BME280;53587;59.318;18.084;2023-08-24T10:11:21;101262.28;;;23.02;79.20
66689;BME280;53587;59.318;18.084;2023-08-24T10:16:32;101257.00;;;23.14;80.03
66689;BME280;53587;59.318;18.084;2023-08-24T10:18:59;101245.88;;;23.14;81.19
66689;BME280;53587;59.318;18.084;2023-08-24T10:21:31;101253.00;;;23.20;80.99
66689;BME280;53587;59.318;18.084;2023-08-24T10:24:06;101246.31;;;23.21;80.75
66689;BME280;53587;59.318;18.084;2023-08-24T10:26:34;101244.22;;;23.27;81.24
66689;BME280;53587;59.318;18.084;2023-08-24T10:29:00;101249.66;;;23.32;80.48
66689;BME280;53587;59.318;18.084;2023-08-24T10:31:26;101226.22;;;23.24;80.65
66689;BME280;53587;59.318;18.084;2023-08-24T10:33:54;101236.06;;;23.30;81.23
66689;BME280;53587;59.318;18.084;2023-08-24T10:36:20;101238.97;;;23.25;80.21
66689;BME280;53587;59.318;18.084;2023-08-24T10:38:48;101231.75;;;23.24;80.08
66689;BME280;53587;59.318;18.084;2023-08-24T10:41:17;101231.16;;;23.27;79.20
66689;BME280;53587;59.318;18.084;2023-08-24T10:44:03;101227.84;;;23.25;80.23
66689;BME280;53587;59.318;18.084;2023-08-24T10:46:34;101228.19;;;23.24;80.01
66689;BME280;53587;59.318;18.084;2023-08-24T10:49:03;101235.69;;;23.23;79.09
66689;BME280;53587;59.318;18.084;2023-08-24T10:51:28;101229.63;;;23.21;80.35
66689;BME280;53587;59.318;18.084;2023-08-24T10:53:56;101226.84;;;23.21;80.10
66689;BME280;53587;59.318;18.084;2023-08-24T10:56:24;101229.50;;;23.12;79.98
66689;BME280;53587;59.318;18.084;2023-08-24T11:01:42;101221.09;;;23.18;79.49
66689;BME280;53587;59.318;18.084;2023-08-24T11:04:14;101240.22;;;23.19;80.47
66689;BME280;53587;59.318;18.084;2023-08-24T11:09:24;101229.63;;;23.21;80.21
66689;BME280;53587;59.318;18.084;2023-08-24T11:12:02;101231.47;;;23.12;78.75
66689;BME280;53587;59.318;18.084;2023-08-24T11:14:33;101227.03;;;23.11;79.40
66689;BME280;53587;59.318;18.084;2023-08-24T11:17:22;101227.47;;;23.18;80.53
66689;BME280;53587;59.318;18.084;2023-08-24T11:19:52;101218.81;;;23.20;80.61
66689;BME280;53587;59.318;18.084;2023-08-24T11:22:20;101225.41;;;23.24;80.13
66689;BME280;53587;59.318;18.084;2023-08-24T11:24:49;101209.97;;;23.18;79.91
66689;BME280;53587;59.318;18.084;2023-08-24T11:27:15;101230.84;;;23.15;79.71
66689;BME280;53587;59.318;18.084;2023-08-24T11:29:41;101219.44;;;23.17;79.40
66689;BME280;53587;59.318;18.084;2023-08-24T11:32:06;101219.22;;;23.13;79.26
66689;BME280;53587;59.318;18.084;2023-08-24T11:34:35;101213.34;;;23.14;79.93
66689;BME280;53587;59.318;18.084;2023-08-24T11:37:01;101215.81;;;23.16;80.36
66689;BME280;53587;59.318;18.084;2023-08-24T11:39:29;101216.03;;;23.20;80.59
66689;BME280;53587;59.318;18.084;2023-08-24T11:47:44;101221.09;;;23.18;79.64
66689;BME280;53587;59.318;18.084;2023-08-24T11:50:19;101216.75;;;23.11;79.45
66689;BME280;53587;59.318;18.084;2023-08-24T11:52:47;101212.22;;;23.15;79.98
66689;BME280;53587;59.318;18.084;2023-08-24T11:55:16;101209.97;;;23.18;80.44
66689;BME280;53587;59.318;18.084;2023-08-24T11:57:42;101216.97;;;23.15;79.70
66689;BME280;53587;59.318;18.084;2023-08-24T12:00:07;101222.22;;;23.17;79.67
66689;BME280;53587;59.318;18.084;2023-08-24T12:02:34;101222.00;;;23.13;79.94
66689;BME280;53587;59.318;18.084;2023-08-24T12:05:00;101218.38;;;23.26;80.15
66689;BME280;53587;59.318;18.084;2023-08-24T12:07:26;101220.03;;;23.27;81.46
66689;BME280;53587;59.318;18.084;2023-08-24T12:09:52;101211.56;;;23.33;81.44
66689;BME280;53587;59.318;18.084;2023-08-24T12:12:19;101202.09;;;23.34;79.71
66689;BME280;53587;59.318;18.084;2023-08-24T12:14:46;101215.47;;;23.31;81.24
66689;BME280;53587;59.318;18.084;2023-08-24T12:17:12;101203.84;;;23.29;80.24
66689;BME280;53587;59.318;18.084;2023-08-24T12:19:45;101212.38;;;23.33;80.37
66689;BME280;53587;59.318;18.084;2023-08-24T12:22:16;101197.66;;;23.33;80.45
66689;BME280;53587;59.318;18.084;2023-08-24T12:24:45;101200.56;;;23.27;79.59
66689;BME280;53587;59.318;18.084;2023-08-24T12:27:29;101203.97;;;23.24;79.94
66689;BME280;53587;59.318;18.084;2023-08-24T12:29:54;101196.75;;;23.23;80.08
66689;BME280;53587;59.318;18.084;2023-08-24T12:32:24;101195.09;;;23.22;79.80
66689;BME280;53587;59.318;18.084;2023-08-24T12:34:51;101201.94;;;23.16;79.12
66689;BME280;53587;59.318;18.084;2023-08-24T12:37:17;101192.47;;;23.17;79.43
66689;BME280;53587;59.318;18.084;2023-08-24T12:39:42;101190.28;;;23.14;80.16
66689;BME280;53587;59.318;18.084;2023-08-24T12:42:07;101194.72;;;23.15;79.70
66689;BME280;53587;59.318;18.084;2023-08-24T12:44:32;101191.94;;;23.15;80.35
66689;BME280;53587;59.318;18.084;2023-08-24T12:46:58;101192.47;;;23.17;79.63
66689;BME280;53587;59.318;18.084;2023-08-24T12:49:24;101193.59;;;23.16;79.35
66689;BME280;53587;59.318;18.084;2023-08-24T12:51:49;101194.72;;;23.15;79.82
66689;BME280;53587;59.318;18.084;2023-08-24T12:54:14;101191.66;;;23.17;79.52
66689;BME280;53587;59.318;18.084;2023-08-24T12:56:39;101193.06;;;23.14;80.36
66689;BME280;53587;59.318;18.084;2023-08-24T12:59:06;101185.75;;;23.18;79.69
66689;BME280;53587;59.318;18.084;2023-08-24T13:01:31;101187.50;;;23.14;79.57
66689;BME280;53587;59.318;18.084;2023-08-24T13:03:56;101187.50;;;23.14;79.61
66689;BME280;53587;59.318;18.084;2023-08-24T13:06:21;101180.63;;;23.11;79.43
66689;BME280;53587;59.318;18.084;2023-08-24T13:08:47;101186.47;;;23.10;79.97